Time;durP1;ratioP1;P1;durP2;ratioP2;P2;SDS_P1;SDS_P2;PMS_P1;PMS_P2;Temp;Humidity;BMP_temperature;BMP_pressure;BME280_temperature;BME280_humidity;BME280_pressure;Samples;Min_cycle;Max_cycle;Signal;HPM_P1;HPM_P2
2021/09/01 00:01:06;;;;;;;9.60;5.70;;;;;;;14.30;88.15;99791.03;5118955;28;20047;-52
2021/09/01 00:03:32;;;;;;;11.10;6.00;;;;;;;14.29;88.16;99786.69;5119213;28;20054;-52
2021/09/01 00:05:57;;;;;;;17.63;6.90;;;;;;;14.25;88.13;99793.88;5118867;28;20453;-52
2021/09/01 00:08:23;;;;;;;11.05;6.45;;;;;;;14.25;88.45;99786.81;5118891;28;20097;-52
2021/09/01 00:10:49;;;;;;;8.77;5.63;;;;;;;14.23;88.23;99793.94;5119096;28;20040;-52
2021/09/01 00:13:15;;;;;;;10.13;5.95;;;;;;;14.21;88.67;99779.97;5117795;28;20054;-52
2021/09/01 00:15:41;;;;;;;11.20;6.32;;;;;;;14.20;88.77;99786.16;5118957;28;20039;-52
2021/09/01 00:18:07;;;;;;;12.02;6.47;;;;;;;14.24;88.86;99784.25;5118708;28;20051;-52
2021/09/01 00:20:32;;;;;;;11.18;6.40;;;;;;;14.24;88.69;99785.13;5118510;28;20100;-52
2021/09/01 00:22:59;;;;;;;7.65;5.32;;;;;;;14.23;88.84;99787.78;5118834;28;20047;-52
2021/09/01 00:25:24;;;;;;;12.93;6.30;;;;;;;14.24;88.88;99785.13;5118044;28;20112;-52
2021/09/01 00:27:50;;;;;;;11.32;6.50;;;;;;;14.23;88.54;99785.16;5118451;28;20043;-52
2021/09/01 00:30:16;;;;;;;7.80;5.40;;;;;;;14.24;88.62;99782.47;5118714;28;20051;-52
2021/09/01 00:32:42;;;;;;;10.13;5.90;;;;;;;14.24;88.17;99784.25;5118323;28;20058;-52
2021/09/01 00:35:08;;;;;;;11.25;6.15;;;;;;;14.21;88.46;99798.41;5117624;28;20043;-52
2021/09/01 00:37:34;;;;;;;9.32;5.30;;;;;;;14.25;88.45;99792.09;5118569;28;20043;-52
2021/09/01 00:39:59;;;;;;;10.30;6.60;;;;;;;14.21;88.37;99790.50;5118494;28;20438;-52
2021/09/01 00:42:25;;;;;;;13.35;5.88;;;;;;;14.21;88.28;99801.03;5118441;28;20062;-52
2021/09/01 00:44:51;;;;;;;13.02;6.57;;;;;;;14.24;88.37;99792.16;5118433;28;20422;-52
2021/09/01 00:47:17;;;;;;;9.60;6.22;;;;;;;14.25;88.33;99800.00;5118262;28;20046;-52
2021/09/01 00:49:43;;;;;;;9.63;6.50;;;;;;;14.23;88.35;99804.50;5117480;28;20067;-52
2021/09/01 00:52:09;;;;;;;13.55;6.32;;;;;;;14.25;88.17;99813.16;5118026;28;20043;-52
2021/09/01 00:54:35;;;;;;;12.52;6.60;;;;;;;14.21;88.20;99803.69;5117894;28;20055;-52
2021/09/01 00:57:02;;;;;;;10.43;5.95;;;;;;;14.22;88.09;99807.16;5083191;28;20048;-52
2021/09/01 00:59:33;;;;;;;11.02;6.78;;;;;;;14.26;88.01;99812.25;5118016;28;20338;-52
2021/09/01 01:02:00;;;;;;;10.77;5.63;;;;;;;14.25;88.14;99815.81;5117242;28;20162;-52
2021/09/01 01:04:35;;;;;;;11.20;5.97;;;;;;;14.25;87.55;99812.31;5118031;28;20048;-52
2021/09/01 01:07:05;;;;;;;12.07;5.53;;;;;;;14.23;87.81;99819.41;5099983;28;20043;-52
2021/09/01 01:09:31;;;;;;;13.07;7.03;;;;;;;14.23;87.36;99822.94;5117659;28;20040;-52
2021/09/01 01:12:29;;;;;;;11.68;6.60;;;;;;;14.20;87.44;99822.16;5116881;28;20039;-52
2021/09/01 01:14:55;;;;;;;9.20;5.75;;;;;;;14.15;87.78;99822.34;5116371;28;20039;-52
2021/09/01 01:17:23;;;;;;;9.93;6.07;;;;;;;14.13;87.96;99824.19;5117798;28;20051;-52
2021/09/01 01:19:49;;;;;;;8.27;5.88;;;;;;;14.12;87.88;99824.25;5117436;28;20039;-51
2021/09/01 01:22:33;;;;;;;8.30;5.88;;;;;;;14.13;87.24;99825.97;5117291;28;20055;-52
2021/09/01 01:25:00;;;;;;;10.48;5.95;;;;;;;14.14;87.85;99833.81;5117714;28;20128;-52
2021/09/01 01:27:39;;;;;;;11.10;6.15;;;;;;;14.15;87.51;99847.84;5117274;28;20339;-52
2021/09/01 01:30:05;;;;;;;11.40;6.85;;;;;;;14.11;87.57;99828.66;5117628;28;20361;-52
2021/09/01 01:32:31;;;;;;;8.00;5.45;;;;;;;14.11;87.60;99839.19;5099395;28;20468;-52
2021/09/01 01:34:56;;;;;;;16.33;6.38;;;;;;;14.08;87.63;99839.31;5117372;28;20044;-52
2021/09/01 01:37:22;;;;;;;11.55;5.90;;;;;;;14.08;87.29;99836.69;5117388;28;20120;-53
2021/09/01 01:39:48;;;;;;;12.45;6.35;;;;;;;14.07;87.35;99842.88;5117163;27;20046;-52
2021/09/01 01:42:14;;;;;;;10.27;6.38;;;;;;;14.08;87.29;99843.75;5116449;28;20047;-52
2021/09/01 01:44:40;;;;;;;11.60;6.00;;;;;;;14.07;87.40;99844.63;5117287;28;20441;-52
2021/09/01 01:47:05;;;;;;;10.07;6.70;;;;;;;14.08;87.44;99839.31;5117255;28;20070;-52
2021/09/01 01:49:31;;;;;;;10.27;6.57;;;;;;;14.06;87.49;99841.16;5116928;28;20063;-52
2021/09/01 01:51:57;;;;;;;9.93;6.05;;;;;;;14.01;87.59;99838.69;5117145;28;20052;-53
2021/09/01 01:54:23;;;;;;;14.73;6.85;;;;;;;14.01;87.70;99843.13;5115881;28;20047;-52
2021/09/01 01:56:49;;;;;;;10.57;6.47;;;;;;;14.01;87.72;99836.06;5116813;28;20096;-52
2021/09/01 01:59:15;;;;;;;12.20;6.57;;;;;;;14.02;87.63;99840.41;5117058;28;20058;-52
2021/09/01 02:01:42;;;;;;;9.40;6.03;;;;;;;14.01;87.57;99848.38;5116166;28;20047;-52
2021/09/01 02:04:07;;;;;;;12.57;6.00;;;;;;;14.02;87.63;99844.81;5116743;28;20048;-52
2021/09/01 02:06:33;;;;;;;9.35;5.65;;;;;;;14.04;87.98;99850.91;5116063;28;20071;-52
2021/09/01 02:08:59;;;;;;;9.73;5.65;;;;;;;14.07;87.71;99852.53;5116093;28;20047;-52
2021/09/01 02:11:25;;;;;;;10.60;6.10;;;;;;;14.06;87.65;99861.38;5116699;28;20039;-52
2021/09/01 02:13:50;;;;;;;15.95;7.85;;;;;;;14.05;87.74;99862.28;5116533;28;20039;-52
2021/09/01 02:16:16;;;;;;;7.78;5.80;;;;;;;14.02;87.63;99866.75;5116525;28;20111;-52
2021/09/01 02:18:42;;;;;;;11.27;7.25;;;;;;;13.98;87.78;99864.31;5098831;28;20044;-52
2021/09/01 02:21:08;;;;;;;9.20;6.43;;;;;;;14.00;87.97;99865.94;5116320;28;20056;-52
2021/09/01 02:23:34;;;;;;;10.70;6.53;;;;;;;14.00;87.91;99857.19;5116403;28;20097;-52
2021/09/01 02:25:59;;;;;;;10.20;5.85;;;;;;;14.03;87.97;99862.31;5116470;28;20104;-52
2021/09/01 02:28:25;;;;;;;11.32;6.65;;;;;;;14.02;87.78;99866.75;5116733;28;20050;-52
2021/09/01 02:30:52;;;;;;;10.45;6.30;;;;;;;14.04;87.55;99871.97;5116425;28;20036;-52
2021/09/01 02:33:18;;;;;;;9.85;6.18;;;;;;;14.04;87.79;99871.97;5116535;28;20126;-52
2021/09/01 02:35:43;;;;;;;8.98;6.32;;;;;;;14.03;87.74;99870.22;5117155;28;20044;-52
2021/09/01 02:38:09;;;;;;;11.93;7.03;;;;;;;14.05;87.44;99876.31;5116374;28;20040;-52
2021/09/01 02:40:35;;;;;;;9.50;5.90;;;;;;;14.05;87.76;99883.34;5116275;28;20047;-52
2021/09/01 02:43:01;;;;;;;8.13;5.45;;;;;;;14.04;87.61;99877.22;5116529;28;20062;-52
2021/09/01 02:45:27;;;;;;;11.32;6.25;;;;;;;14.05;87.16;99878.94;5116537;28;20126;-52
2021/09/01 02:47:52;;;;;;;8.57;5.50;;;;;;;14.05;87.34;99878.09;5115408;28;20074;-52
2021/09/01 02:50:18;;;;;;;11.07;6.68;;;;;;;14.05;87.38;99881.56;5115662;28;20418;-52
2021/09/01 02:52:44;;;;;;;18.75;6.18;;;;;;;14.06;87.29;99878.00;5115284;28;20362;-51
2021/09/01 02:55:10;;;;;;;11.70;5.97;;;;;;;14.05;87.42;99889.47;5116040;28;20043;-52
2021/09/01 02:57:36;;;;;;;9.25;5.65;;;;;;;14.03;87.09;99883.41;5115803;28;20047;-52
2021/09/01 03:00:04;;;;;;;11.52;6.63;;;;;;;14.07;87.05;99886.78;5116165;28;20040;-52
2021/09/01 03:02:30;;;;;;;10.68;5.85;;;;;;;14.06;86.97;99888.56;5116407;28;20052;-52
2021/09/01 03:04:55;;;;;;;11.82;6.20;;;;;;;14.05;87.08;99888.63;5116694;28;20116;-52
2021/09/01 03:07:21;;;;;;;10.13;5.88;;;;;;;14.03;87.28;99891.28;5116388;28;20054;-52
2021/09/01 03:09:47;;;;;;;10.90;6.20;;;;;;;14.01;86.87;99893.16;5081649;28;20403;-52
2021/09/01 03:12:13;;;;;;;8.93;6.13;;;;;;;14.02;87.02;99903.59;5116017;28;20044;-52
2021/09/01 03:14:39;;;;;;;14.35;6.82;;;;;;;14.03;86.97;99896.56;5115922;28;20458;-52
2021/09/01 03:17:05;;;;;;;11.98;6.20;;;;;;;14.04;86.98;99898.31;5117053;28;20051;-52
2021/09/01 03:19:30;;;;;;;9.88;5.82;;;;;;;14.05;87.19;99900.00;5116246;28;20054;-52
2021/09/01 03:21:56;;;;;;;8.40;5.47;;;;;;;14.06;87.14;99903.50;5115836;28;20117;-52
2021/09/01 03:24:22;;;;;;;10.00;6.63;;;;;;;13.77;87.04;99856.28;5119166;28;20429;-52
2021/09/01 03:26:48;;;;;;;9.70;5.95;;;;;;;14.06;86.92;99911.41;5119723;28;20039;-52
2021/09/01 03:29:14;;;;;;;12.10;6.60;;;;;;;14.06;86.80;99909.63;5119913;28;20105;-52
2021/09/01 03:31:39;;;;;;;9.13;5.72;;;;;;;14.06;86.63;99920.16;5118988;28;20116;-52
2021/09/01 03:34:05;;;;;;;11.25;6.35;;;;;;;14.07;86.74;99915.72;5101717;28;20043;-52
2021/09/01 03:36:31;;;;;;;9.05;5.78;;;;;;;14.06;86.58;99917.53;5119439;28;20054;-52
2021/09/01 03:38:57;;;;;;;11.65;6.72;;;;;;;14.06;86.77;99921.94;5119420;28;20053;-52
2021/09/01 03:41:22;;;;;;;11.10;6.28;;;;;;;14.01;86.63;99927.38;5119683;28;20055;-52
2021/09/01 03:43:48;;;;;;;8.98;6.32;;;;;;;14.02;86.81;99931.72;5119658;28;20475;-52
2021/09/01 03:46:14;;;;;;;12.43;7.18;;;;;;;14.02;86.75;99927.31;5119917;28;20418;-52
2021/09/01 03:48:40;;;;;;;12.82;6.88;;;;;;;14.02;86.77;99929.09;5120093;28;20055;-52
2021/09/01 03:51:06;;;;;;;11.05;7.30;;;;;;;13.99;87.29;99930.06;5119370;28;20047;-52
2021/09/01 03:53:31;;;;;;;15.13;7.32;;;;;;;14.00;87.06;99937.03;5119063;28;20060;-51
2021/09/01 03:55:57;;;;;;;10.80;6.07;;;;;;;13.99;87.47;99934.47;5118530;28;20100;-51
2021/09/01 03:58:23;;;;;;;9.80;6.63;;;;;;;14.00;87.24;99936.19;5118499;28;20063;-52
2021/09/01 04:00:48;;;;;;;11.20;6.28;;;;;;;13.96;87.16;99937.22;5119136;28;20451;-52
2021/09/01 04:03:14;;;;;;;13.10;7.10;;;;;;;13.99;87.20;99939.72;5119005;28;20047;-52
2021/09/01 04:05:40;;;;;;;13.68;6.82;;;;;;;13.96;87.27;99942.47;5119185;28;20059;-52
2021/09/01 04:08:06;;;;;;;11.25;6.43;;;;;;;13.94;87.66;99942.56;5118164;28;20054;-52
2021/09/01 04:10:32;;;;;;;10.68;6.65;;;;;;;13.95;87.73;99941.63;5118015;28;20036;-52
2021/09/01 04:12:57;;;;;;;11.60;7.45;;;;;;;13.98;87.25;99945.94;5118763;28;20048;-52
2021/09/01 04:15:23;;;;;;;13.95;6.30;;;;;;;13.96;87.54;99943.34;5117874;28;20047;-52
2021/09/01 04:17:49;;;;;;;9.98;6.22;;;;;;;13.98;87.39;99948.56;5118660;28;20116;-52
2021/09/01 04:20:15;;;;;;;12.88;7.00;;;;;;;14.00;87.51;99946.72;5118712;28;20070;-51
2021/09/01 04:22:41;;;;;;;14.80;6.80;;;;;;;14.00;87.46;99949.34;5118940;27;20380;-52
2021/09/01 04:25:07;;;;;;;13.02;7.07;;;;;;;13.98;87.26;99953.81;5118856;28;20452;-52
2021/09/01 04:27:33;;;;;;;12.38;5.90;;;;;;;14.04;87.08;99950.97;5118542;28;20035;-52
2021/09/01 04:29:59;;;;;;;10.73;6.10;;;;;;;14.05;87.20;99954.47;5118445;28;20047;-52
2021/09/01 04:32:24;;;;;;;11.85;6.75;;;;;;;14.00;87.06;99946.72;5118473;28;20046;-52
2021/09/01 04:34:50;;;;;;;9.15;5.95;;;;;;;13.99;86.89;99951.13;5118102;28;20443;-52
2021/09/01 04:37:16;;;;;;;10.35;5.82;;;;;;;14.03;87.14;99957.13;5117710;28;20062;-52
2021/09/01 04:39:42;;;;;;;9.65;6.10;;;;;;;14.01;87.11;99953.72;5117964;28;20109;-52
2021/09/01 04:42:08;;;;;;;13.73;6.55;;;;;;;14.04;87.09;99961.50;5117484;28;20103;-52
2021/09/01 04:44:33;;;;;;;12.80;5.97;;;;;;;14.03;87.37;99967.66;5116490;28;20044;-51
2021/09/01 04:46:59;;;;;;;9.40;5.65;;;;;;;14.03;87.39;99976.41;5116192;28;20361;-51
2021/09/01 04:49:25;;;;;;;13.15;6.55;;;;;;;14.08;87.29;99975.41;5116141;28;20043;-51
2021/09/01 04:51:51;;;;;;;10.13;6.03;;;;;;;14.11;87.05;99970.03;5116092;28;20039;-51
2021/09/01 04:54:17;;;;;;;11.18;6.78;;;;;;;14.14;87.00;99977.81;5116372;28;20089;-51
2021/09/01 04:56:43;;;;;;;13.15;5.97;;;;;;;14.13;86.78;99982.22;5116343;28;20097;-51
2021/09/01 04:59:09;;;;;;;11.73;5.88;;;;;;;14.14;86.67;99983.09;5117837;27;20059;-52
2021/09/01 05:01:34;;;;;;;12.32;5.72;;;;;;;14.16;86.49;99989.16;5118119;28;20453;-52
2021/09/01 05:04:00;;;;;;;9.75;5.78;;;;;;;14.17;86.54;99991.75;5118094;28;20044;-52
2021/09/01 05:06:27;;;;;;;10.07;5.97;;;;;;;14.15;86.56;99995.34;5117707;28;20070;-52
2021/09/01 05:08:56;;;;;;;14.32;7.00;;;;;;;14.14;86.37;100005.03;5117748;28;20372;-52
2021/09/01 05:11:22;;;;;;;9.00;4.88;;;;;;;14.18;86.12;100003.97;5117915;28;20055;-52
2021/09/01 05:13:48;;;;;;;10.30;5.57;;;;;;;14.19;86.27;100007.47;5117869;28;20122;-52
2021/09/01 05:16:13;;;;;;;11.05;6.25;;;;;;;14.18;86.40;100003.13;5117491;28;20063;-52
2021/09/01 05:18:39;;;;;;;9.45;5.70;;;;;;;14.14;86.16;100001.53;5100005;28;20043;-52
2021/09/01 05:21:05;;;;;;;10.15;5.90;;;;;;;14.12;86.08;100009.47;5117548;28;20056;-52
2021/09/01 05:23:32;;;;;;;10.10;5.55;;;;;;;14.15;86.19;100004.09;5117455;28;20330;-53
2021/09/01 05:26:00;;;;;;;10.90;5.75;;;;;;;14.19;86.44;100012.75;5117022;28;20047;-52
2021/09/01 05:28:27;;;;;;;10.73;5.38;;;;;;;14.17;86.13;100009.28;5116909;28;20081;-53
2021/09/01 05:30:53;;;;;;;10.07;5.50;;;;;;;14.18;86.37;100022.41;5117564;28;20051;-52
2021/09/01 05:33:20;;;;;;;12.13;5.75;;;;;;;14.19;86.28;100026.75;5117467;28;20043;-52
2021/09/01 05:35:49;;;;;;;9.07;5.45;;;;;;;14.21;86.15;100034.63;5117151;28;20413;-52
2021/09/01 05:38:17;;;;;;;12.27;6.90;;;;;;;14.18;86.23;100032.09;5117450;28;20044;-52
2021/09/01 05:40:43;;;;;;;11.90;7.18;;;;;;;14.21;86.35;100032.00;5117118;28;20361;-52
2021/09/01 05:43:09;;;;;;;12.93;5.85;;;;;;;14.23;86.29;100030.16;5117079;28;20044;-52
2021/09/01 05:45:35;;;;;;;10.23;5.20;;;;;;;14.26;86.54;100038.78;5098403;28;20140;-52
2021/09/01 05:48:00;;;;;;;14.80;6.47;;;;;;;14.25;86.04;100039.72;5117273;28;20058;-52
2021/09/01 05:50:26;;;;;;;9.07;5.57;;;;;;;14.30;86.25;100036.03;5117213;27;20392;-52
2021/09/01 05:52:52;;;;;;;9.95;6.15;;;;;;;14.27;86.40;100035.25;5116321;28;20058;-51
2021/09/01 05:55:18;;;;;;;8.10;5.50;;;;;;;14.30;86.40;100028.16;5116766;28;20043;-52
2021/09/01 05:57:44;;;;;;;14.35;5.65;;;;;;;14.30;86.41;100025.50;5117212;28;20044;-52
2021/09/01 06:00:14;;;;;;;12.63;5.05;;;;;;;14.42;86.24;100035.59;5116443;28;20058;-52
2021/09/01 06:02:51;;;;;;;8.45;5.13;;;;;;;14.50;85.97;100038.81;5117080;28;20048;-52
2021/09/01 06:05:18;;;;;;;8.73;5.10;;;;;;;14.51;86.08;100043.19;5116718;28;20055;-52
2021/09/01 06:07:55;;;;;;;8.68;5.60;;;;;;;14.55;85.17;100041.31;5116626;28;20331;-52
2021/09/01 06:10:23;;;;;;;8.27;4.88;;;;;;;14.59;85.41;100051.69;5099240;28;20044;-52
2021/09/01 06:12:52;;;;;;;10.68;5.90;;;;;;;14.63;85.39;100050.66;5116868;28;20039;-52
2021/09/01 06:15:17;;;;;;;14.57;5.85;;;;;;;14.63;85.36;100053.28;5116557;28;20043;-52
2021/09/01 06:17:43;;;;;;;11.70;5.40;;;;;;;14.71;85.70;100051.19;5116775;28;20048;-52
2021/09/01 06:20:10;;;;;;;10.10;4.65;;;;;;;14.85;85.51;100052.44;5116908;28;20357;-52
2021/09/01 06:22:35;;;;;;;11.25;5.35;;;;;;;14.92;85.03;100056.59;5116496;28;20042;-52
2021/09/01 06:25:01;;;;;;;10.32;5.05;;;;;;;14.94;84.75;100055.59;5115891;28;20040;-52
2021/09/01 06:27:27;;;;;;;8.07;4.75;;;;;;;14.98;84.64;100064.25;5116738;28;20097;-52
2021/09/01 06:29:53;;;;;;;10.55;5.55;;;;;;;15.04;84.53;100058.72;5116994;28;20043;-52
2021/09/01 06:32:18;;;;;;;8.73;5.40;;;;;;;15.03;83.87;100059.66;5116676;28;20052;-52
2021/09/01 06:34:44;;;;;;;10.85;5.15;;;;;;;14.99;83.94;100063.34;5116137;28;20039;-52
2021/09/01 06:37:10;;;;;;;9.38;6.40;;;;;;;15.03;83.64;100064.94;5116613;28;20358;-52
2021/09/01 06:39:36;;;;;;;10.60;5.38;;;;;;;15.02;83.51;100057.09;5082088;28;20054;-52
2021/09/01 06:42:02;;;;;;;11.02;5.30;;;;;;;15.05;83.91;100072.81;5116702;28;20345;-52
2021/09/01 06:44:27;;;;;;;9.38;5.40;;;;;;;15.13;83.71;100065.44;5116330;28;20120;-52
2021/09/01 06:46:53;;;;;;;8.63;5.30;;;;;;;15.17;83.62;100069.66;5116293;28;20051;-52
2021/09/01 06:49:19;;;;;;;7.93;5.50;;;;;;;15.24;83.73;100073.78;5116783;28;20066;-52
2021/09/01 06:51:45;;;;;;;12.05;5.60;;;;;;;15.31;83.68;100077.91;5116229;28;20047;-52
2021/09/01 06:54:10;;;;;;;9.38;5.90;;;;;;;15.34;82.98;100075.13;5116132;28;20097;-52
2021/09/01 06:56:36;;;;;;;8.70;5.18;;;;;;;15.38;82.68;100083.78;5115826;28;20101;-53
2021/09/01 06:59:02;;;;;;;9.23;5.30;;;;;;;15.42;82.86;100094.13;5120293;28;20124;-52
2021/09/01 07:01:28;;;;;;;9.48;5.88;;;;;;;15.46;82.48;100100.16;5120244;28;20035;-52
2021/09/01 07:03:54;;;;;;;7.63;5.10;;;;;;;15.54;82.63;100089.31;5120648;28;20054;-52
2021/09/01 07:06:21;;;;;;;11.05;5.78;;;;;;;15.56;82.34;100090.94;5120058;28;20051;-52
2021/09/01 07:08:46;;;;;;;13.70;5.95;;;;;;;15.54;81.75;100095.44;5120059;28;20058;-52
2021/09/01 07:11:13;;;;;;;11.48;5.78;;;;;;;15.47;81.93;100099.25;5120337;28;20051;-52
2021/09/01 07:13:38;;;;;;;12.80;6.70;;;;;;;15.43;82.02;100095.84;5120066;28;20051;-52
2021/09/01 07:16:06;;;;;;;9.90;5.22;;;;;;;15.45;82.05;100097.59;5119979;28;20035;-52
2021/09/01 07:18:32;;;;;;;9.02;5.00;;;;;;;15.43;81.81;100097.63;5120144;28;20058;-52
2021/09/01 07:20:58;;;;;;;8.35;5.03;;;;;;;15.45;82.06;100100.22;5119915;28;20058;-52
2021/09/01 07:23:23;;;;;;;10.07;4.95;;;;;;;15.43;81.70;100102.91;5120061;27;20059;-52
2021/09/01 07:25:49;;;;;;;7.60;4.35;;;;;;;15.45;81.87;100108.16;5120022;27;20090;-52
2021/09/01 07:28:15;;;;;;;11.07;5.85;;;;;;;15.46;81.95;100115.13;5119993;28;20051;-52
2021/09/01 07:30:41;;;;;;;13.27;5.78;;;;;;;15.47;82.02;100117.72;5119775;28;20055;-52
2021/09/01 07:33:07;;;;;;;8.65;5.35;;;;;;;15.51;81.63;100113.19;5118977;28;20396;-53
2021/09/01 07:35:32;;;;;;;9.40;5.57;;;;;;;15.55;81.56;100122.69;5119746;28;20084;-53
2021/09/01 07:37:58;;;;;;;9.82;5.03;;;;;;;15.60;81.36;100123.38;5119951;28;20051;-53
2021/09/01 07:40:24;;;;;;;10.18;4.97;;;;;;;15.66;81.40;100128.38;5120072;28;20044;-53
2021/09/01 07:42:50;;;;;;;8.75;5.60;;;;;;;15.70;81.71;100135.31;5119686;28;20120;-53
2021/09/01 07:45:17;;;;;;;9.15;4.90;;;;;;;15.80;81.62;100136.63;5119621;28;20043;-53
2021/09/01 07:47:46;;;;;;;8.70;5.72;;;;;;;15.94;81.52;100129.91;5119297;28;20056;-53
2021/09/01 07:50:13;;;;;;;11.82;5.53;;;;;;;15.80;80.75;100115.50;5085012;28;20058;-53
2021/09/01 07:52:38;;;;;;;9.07;4.85;;;;;;;15.90;80.65;100137.13;5119503;28;20052;-53
2021/09/01 07:55:05;;;;;;;8.88;5.15;;;;;;;15.93;80.17;100133.50;5118547;28;20452;-53
2021/09/01 07:57:31;;;;;;;9.98;5.45;;;;;;;15.94;79.71;100140.50;5119702;28;20049;-53
2021/09/01 07:59:57;;;;;;;9.98;5.03;;;;;;;15.93;79.82;100139.63;5118486;28;20052;-53
2021/09/01 08:02:23;;;;;;;11.00;5.28;;;;;;;15.92;79.67;100145.81;5118983;28;20048;-53
2021/09/01 08:04:48;;;;;;;11.10;4.43;;;;;;;15.96;79.88;100144.78;5119246;28;20043;-53
2021/09/01 08:07:14;;;;;;;12.23;5.10;;;;;;;16.01;79.53;100150.72;5118897;28;20366;-53
2021/09/01 08:09:40;;;;;;;9.65;4.60;;;;;;;16.10;79.80;100146.84;5118284;28;20056;-53
2021/09/01 08:12:06;;;;;;;8.10;4.38;;;;;;;16.26;79.98;100145.25;5119338;28;20438;-53
2021/09/01 08:14:32;;;;;;;8.38;4.43;;;;;;;16.41;79.70;100153.44;5119016;28;20047;-53
2021/09/01 08:16:58;;;;;;;8.88;5.55;;;;;;;16.51;79.44;100152.09;5119037;28;20089;-53
2021/09/01 08:19:23;;;;;;;8.57;5.75;;;;;;;16.58;78.75;100146.50;5118675;28;20416;-53
2021/09/01 08:21:49;;;;;;;11.38;5.38;;;;;;;16.70;78.04;100158.28;5118785;28;20063;-53
2021/09/01 08:24:15;;;;;;;8.98;4.68;;;;;;;16.77;77.52;100158.94;5118272;28;20044;-53
2021/09/01 08:26:41;;;;;;;10.77;5.10;;;;;;;16.77;76.49;100162.44;5118561;27;20403;-53
2021/09/01 08:29:07;;;;;;;7.05;4.30;;;;;;;16.87;77.01;100169.97;5118505;28;20046;-53
2021/09/01 08:31:32;;;;;;;10.32;5.57;;;;;;;16.85;76.15;100170.03;5118478;28;20039;-53
2021/09/01 08:33:58;;;;;;;7.47;4.45;;;;;;;16.86;76.10;100170.88;5118599;27;20048;-53
2021/09/01 08:36:24;;;;;;;6.70;3.78;;;;;;;16.87;75.70;100168.16;5118419;28;20479;-53
2021/09/01 08:38:50;;;;;;;7.20;4.47;;;;;;;16.84;75.39;100180.69;5118893;27;20434;-53
2021/09/01 08:41:16;;;;;;;7.65;4.63;;;;;;;16.83;75.79;100179.78;5118244;28;20073;-53
2021/09/01 08:43:42;;;;;;;7.65;4.40;;;;;;;16.82;75.82;100178.09;5118292;28;20445;-53
2021/09/01 08:46:08;;;;;;;15.65;5.22;;;;;;;16.74;75.38;100169.63;5100993;28;20040;-53
2021/09/01 08:48:36;;;;;;;8.07;4.60;;;;;;;16.74;75.70;100183.69;5117321;28;20035;-54
2021/09/01 08:51:01;;;;;;;8.68;4.35;;;;;;;16.73;75.80;100194.31;5118100;28;20070;-53
2021/09/01 08:53:27;;;;;;;9.60;4.35;;;;;;;16.77;76.29;100195.97;5118248;28;20047;-53
2021/09/01 08:55:53;;;;;;;7.15;4.13;;;;;;;16.86;75.96;100198.19;5118243;28;20047;-53
2021/09/01 08:58:19;;;;;;;7.47;4.75;;;;;;;16.94;76.04;100195.22;5117994;28;20108;-53
2021/09/01 09:00:45;;;;;;;9.43;4.65;;;;;;;17.08;76.56;100208.66;5117531;28;20052;-54
2021/09/01 09:03:10;;;;;;;8.02;4.63;;;;;;;17.16;75.47;100209.19;5117896;28;20035;-53
2021/09/01 09:05:37;;;;;;;6.07;3.78;;;;;;;17.32;75.04;100211.09;5117816;28;20067;-54
2021/09/01 09:08:07;;;;;;;10.93;4.53;;;;;;;17.52;75.49;100201.31;5117832;28;20043;-54
2021/09/01 09:10:37;;;;;;;6.90;4.70;;;;;;;17.98;75.58;100207.06;5116932;28;20132;-54
2021/09/01 09:13:08;;;;;;;10.63;4.28;;;;;;;18.43;75.36;100203.03;5118263;28;20065;-54
2021/09/01 09:15:34;;;;;;;9.50;4.45;;;;;;;18.60;71.76;100204.81;5117538;28;20536;-54
2021/09/01 09:18:01;;;;;;;5.97;3.70;;;;;;;18.71;72.39;100206.03;5116754;28;20077;-54
2021/09/01 09:20:31;;;;;;;13.57;4.75;;;;;;;18.88;70.82;100204.25;5116666;28;20051;-54
2021/09/01 09:22:57;;;;;;;7.63;4.35;;;;;;;19.13;71.12;100202.91;5118089;28;20043;-53
2021/09/01 09:25:32;;;;;;;7.03;4.00;;;;;;;19.41;70.55;100201.44;5117909;28;20108;-53
2021/09/01 09:28:00;;;;;;;6.78;3.85;;;;;;;19.64;70.16;100198.38;5117725;28;20088;-54
2021/09/01 09:30:56;;;;;;;9.43;4.32;;;;;;;19.85;67.75;100210.41;5099885;28;20043;-54
2021/09/01 09:33:23;;;;;;;6.47;4.55;;;;;;;19.95;65.98;100201.91;5116037;27;20070;-54
2021/09/01 09:35:54;;;;;;;6.97;3.88;;;;;;;20.14;66.32;100201.72;5117528;28;20441;-54
2021/09/01 09:38:32;;;;;;;7.30;4.20;;;;;;;20.13;64.87;100200.00;5116883;28;20071;-54
2021/09/01 09:40:59;;;;;;;6.32;3.67;;;;;;;19.97;64.40;100202.69;5117228;28;20039;-54
2021/09/01 09:43:24;;;;;;;6.72;4.25;;;;;;;19.90;64.91;100188.91;5117359;28;20054;-54
2021/09/01 09:45:59;;;;;;;10.43;3.63;;;;;;;20.16;64.86;100190.03;5116462;28;20048;-54
2021/09/01 09:48:28;;;;;;;10.57;4.40;;;;;;;20.33;65.10;100188.19;5117658;28;20043;-54
2021/09/01 09:50:54;;;;;;;8.32;3.70;;;;;;;20.54;65.86;100185.16;5116937;28;20073;-54
2021/09/01 09:53:40;;;;;;;13.82;4.32;;;;;;;20.66;62.83;100186.19;5116327;28;20051;-54
2021/09/01 09:56:26;;;;;;;6.28;3.75;;;;;;;20.75;62.97;100188.28;5116379;28;20425;-54
2021/09/01 09:58:54;;;;;;;5.55;3.65;;;;;;;20.83;63.42;100176.31;5116957;28;20084;-54
2021/09/01 10:01:21;;;;;;;6.25;3.70;;;;;;;20.69;61.66;100179.81;5116249;28;20044;-54
2021/09/01 10:03:47;;;;;;;5.53;3.40;;;;;;;20.47;60.05;100180.22;5116745;28;20050;-53
2021/09/01 10:06:14;;;;;;;5.47;3.75;;;;;;;20.34;60.70;100192.56;5116763;28;20039;-53
2021/09/01 10:08:40;;;;;;;5.50;3.50;;;;;;;20.36;61.25;100185.34;5116486;28;20046;-53
2021/09/01 10:11:07;;;;;;;6.38;3.17;;;;;;;20.62;62.08;100194.47;5116628;28;20040;-53
2021/09/01 10:13:33;;;;;;;5.63;3.10;;;;;;;20.84;60.48;100188.69;5115707;28;20051;-53
2021/09/01 10:16:06;;;;;;;4.97;3.00;;;;;;;21.03;59.49;100181.28;5114939;28;20093;-53
2021/09/01 10:18:32;;;;;;;6.95;3.13;;;;;;;21.10;60.14;100179.09;5098253;28;20054;-53
2021/09/01 10:20:58;;;;;;;6.18;3.28;;;;;;;20.97;59.65;100174.50;5113827;28;20052;-53
2021/09/01 10:23:41;;;;;;;5.40;3.10;;;;;;;21.01;58.95;100183.16;5096863;28;20044;-52
2021/09/01 10:26:25;;;;;;;11.68;3.90;;;;;;;21.01;60.35;100192.00;5114761;28;20346;-53
2021/09/01 10:28:52;;;;;;;6.00;3.05;;;;;;;21.15;61.67;100206.25;5114755;28;20309;-52
2021/09/01 10:31:18;;;;;;;7.35;3.10;;;;;;;21.39;60.28;100201.25;5114605;28;20096;-52
2021/09/01 10:33:51;;;;;;;5.25;3.17;;;;;;;21.59;56.40;100202.63;5123299;28;20112;-53
2021/09/01 10:36:23;;;;;;;6.70;3.42;;;;;;;21.49;55.33;100209.50;5123554;27;20047;-54
2021/09/01 10:39:12;;;;;;;5.65;2.78;;;;;;;21.46;55.07;100205.22;5123293;28;20391;-53
2021/09/01 10:41:39;;;;;;;5.53;2.63;;;;;;;21.67;56.93;100202.97;5119751;28;20112;-53
2021/09/01 10:44:11;;;;;;;3.95;2.65;;;;;;;21.82;55.33;100193.97;5123197;27;20441;-53
2021/09/01 10:46:52;;;;;;;5.88;2.95;;;;;;;21.81;53.97;100202.94;5123480;28;20358;-53
2021/09/01 10:49:18;;;;;;;4.17;2.73;;;;;;;21.92;55.29;100199.56;5123143;27;20458;-53
2021/09/01 10:51:55;;;;;;;5.07;3.03;;;;;;;22.02;55.95;100195.31;5122635;28;20052;-53
2021/09/01 10:54:34;;;;;;;5.15;3.15;;;;;;;22.24;55.97;100197.44;5123249;27;20043;-53
2021/09/01 10:57:01;;;;;;;4.20;2.80;;;;;;;22.21;54.71;100210.13;5122489;28;20376;-53
2021/09/01 10:59:37;;;;;;;4.75;2.60;;;;;;;22.05;54.04;100200.47;5123294;27;20055;-53
2021/09/01 11:02:10;;;;;;;9.55;2.97;;;;;;;22.12;53.75;100207.09;5123309;27;20066;-53
2021/09/01 11:04:44;;;;;;;13.15;2.88;;;;;;;22.04;53.46;100208.56;5122978;27;20043;-53
2021/09/01 11:07:10;;;;;;;8.30;3.00;;;;;;;21.99;54.89;100202.69;5123270;27;20051;-53
2021/09/01 11:09:36;;;;;;;4.03;2.53;;;;;;;22.10;55.99;100208.16;5122905;27;20151;-53
2021/09/01 11:12:02;;;;;;;6.07;2.83;;;;;;;22.23;55.72;100210.88;5122921;27;20058;-53
2021/09/01 11:14:31;;;;;;;4.40;2.47;;;;;;;22.36;54.02;100211.78;5123126;27;20039;-53
2021/09/01 11:16:58;;;;;;;5.15;2.80;;;;;;;22.42;52.56;100219.34;5123155;27;20349;-54
2021/09/01 11:19:24;;;;;;;7.28;3.00;;;;;;;22.52;52.75;100222.25;5122257;28;20112;-53
2021/09/01 11:21:50;;;;;;;4.07;3.00;;;;;;;22.49;51.51;100222.44;5122699;27;20073;-53
2021/09/01 11:24:17;;;;;;;5.38;2.95;;;;;;;22.23;49.80;100219.75;5123060;27;20040;-54